createdAt,value
2019-03-27T00:00:17.516Z,20.3
2019-03-27T00:01:07.019Z,20.3
2019-03-27T00:01:57.648Z,20.3
2019-03-27T00:02:47.716Z,20.3
2019-03-27T00:03:37.751Z,20.3
2019-03-27T00:04:27.538Z,20.3
2019-03-27T00:05:17.859Z,20.3
2019-03-27T00:06:07.386Z,20.3
2019-03-27T00:06:58.005Z,20.3
2019-03-27T00:07:47.783Z,20.3
2019-03-27T00:08:38.419Z,20.3
2019-03-27T00:09:27.961Z,20.3
2019-03-27T00:10:18.265Z,20.3
2019-03-27T00:11:08.300Z,20.3
2019-03-27T00:11:58.338Z,20.3
2019-03-27T00:12:48.740Z,20.3
2019-03-27T00:13:38.783Z,20.3
2019-03-27T00:14:28.056Z,20.3
2019-03-27T00:15:18.885Z,20.3
2019-03-27T00:16:08.665Z,20.3
2019-03-27T00:16:58.739Z,20.3
2019-03-27T00:17:48.785Z,20.3
2019-03-27T00:18:39.118Z,20.3
2019-03-27T00:19:28.938Z,20.3
2019-03-27T00:20:18.493Z,20.3
2019-03-27T00:21:08.540Z,20.3
2019-03-27T00:21:59.355Z,20.3
2019-03-27T00:22:49.435Z,20.3
2019-03-27T00:23:39.467Z,20.3
2019-03-27T00:24:29.285Z,20.3
2019-03-27T00:25:19.603Z,20.3
2019-03-27T00:26:09.120Z,20.3
2019-03-27T00:26:59.720Z,20.3
2019-03-27T00:27:49.774Z,20.3
2019-03-27T00:28:39.875Z,20.3
2019-03-27T00:29:29.904Z,20.3
2019-03-27T00:30:19.742Z,20.3
2019-03-27T00:31:13.247Z,20.3
2019-03-27T00:31:59.534Z,20.3
2019-03-27T00:32:50.139Z,20.3
2019-03-27T00:33:39.930Z,20.3
2019-03-27T00:34:30.267Z,20.3
2019-03-27T00:35:19.504Z,20.3
2019-03-27T00:36:10.104Z,20.3
2019-03-27T00:36:59.955Z,20.3
2019-03-27T00:37:49.954Z,20.3
2019-03-27T00:38:40.571Z,20.3
2019-03-27T00:39:30.351Z,20.3
2019-03-27T00:40:19.851Z,20.3
2019-03-27T00:41:10.753Z,20.3
2019-03-27T00:42:00.579Z,20.3
2019-03-27T00:42:50.583Z,20.3
2019-03-27T00:43:40.646Z,20.3
2019-03-27T00:44:30.434Z,20.3
2019-03-27T00:45:30.241Z,20.3
2019-03-27T00:46:10.554Z,20.3
2019-03-27T00:47:00.899Z,20.3
2019-03-27T00:47:51.239Z,20.3
2019-03-27T00:48:41.027Z,20.3
2019-03-27T00:49:30.861Z,20.3
2019-03-27T00:50:21.133Z,20.3
2019-03-27T00:51:11.543Z,20.3
2019-03-27T00:52:01.548Z,20.2
2019-03-27T00:52:51.624Z,20.3
2019-03-27T00:53:41.103Z,20.3
2019-03-27T00:54:31.141Z,20.3
2019-03-27T00:55:21.773Z,20.3
2019-03-27T00:56:11.089Z,20.3
2019-03-27T00:57:01.989Z,20.3
2019-03-27T00:57:51.405Z,20.3
2019-03-27T00:58:41.488Z,20.3
2019-03-27T00:59:31.631Z,20.3
2019-03-27T01:00:21.949Z,20.2
2019-03-27T01:01:11.930Z,20.2
2019-03-27T01:02:01.738Z,20.2
2019-03-27T01:02:52.043Z,20.2
2019-03-27T01:03:42.371Z,20.2
2019-03-27T01:04:32.174Z,20.2
2019-03-27T01:05:22.219Z,20.2
2019-03-27T01:06:12.581Z,20.2
2019-03-27T01:07:02.706Z,20.2
2019-03-27T01:07:52.411Z,20.2
2019-03-27T01:08:42.744Z,20.3
2019-03-27T01:09:32.290Z,20.2
2019-03-27T01:10:22.610Z,20.2
2019-03-27T01:11:12.916Z,20.3
2019-03-27T01:12:02.742Z,20.2
2019-03-27T01:12:52.770Z,20.2
2019-03-27T01:13:43.150Z,20.2
2019-03-27T01:14:33.154Z,20.2
2019-03-27T01:15:22.688Z,20.2
2019-03-27T01:16:13.027Z,20.2
2019-03-27T01:17:02.582Z,20.2
2019-03-27T01:17:53.410Z,20.2
2019-03-27T01:18:42.917Z,20.2
2019-03-27T01:19:33.529Z,20.2
2019-03-27T01:20:23.312Z,20.2
2019-03-27T01:21:13.647Z,20.2
2019-03-27T01:22:03.189Z,20.2
2019-03-27T01:22:53.762Z,20.2
2019-03-27T01:23:43.949Z,20.2
2019-03-27T01:24:33.878Z,20.2
2019-03-27T01:25:23.701Z,20.2
2019-03-27T01:26:14.021Z,20.2
2019-03-27T01:27:04.142Z,20.2
2019-03-27T01:27:53.648Z,20.2
2019-03-27T01:28:44.196Z,20.2
2019-03-27T01:29:33.966Z,20.2
2019-03-27T01:30:24.350Z,20.2
2019-03-27T01:31:14.379Z,20.2
2019-03-27T01:32:04.157Z,20.2
2019-03-27T01:32:54.485Z,20.2
2019-03-27T01:33:44.276Z,20.2
2019-03-27T01:34:34.666Z,20.2
2019-03-27T01:35:24.695Z,20.2
2019-03-27T01:36:14.173Z,20.1
2019-03-27T01:37:04.796Z,20.2
2019-03-27T01:37:54.023Z,20.2
2019-03-27T01:38:43.798Z,20.2
2019-03-27T01:39:34.981Z,20.2
2019-03-27T01:40:24.489Z,20.2
2019-03-27T01:41:14.873Z,20.1
2019-03-27T01:42:05.153Z,20.2
2019-03-27T01:42:54.933Z,20.2
2019-03-27T01:43:44.993Z,20.2
2019-03-27T01:44:35.341Z,20.2
2019-03-27T01:45:25.113Z,20.2
2019-03-27T01:46:15.175Z,20.2
2019-03-27T01:47:04.728Z,20.2
2019-03-27T01:47:55.565Z,20.1
2019-03-27T01:48:45.350Z,20.2
2019-03-27T01:49:35.706Z,20.2
2019-03-27T01:50:24.959Z,20.2
2019-03-27T01:51:15.827Z,20.2
2019-03-27T01:52:08.973Z,20.1
2019-03-27T01:52:55.110Z,20.2
2019-03-27T01:53:45.727Z,20.1
2019-03-27T01:54:36.056Z,20.1
2019-03-27T01:55:25.827Z,20.2
2019-03-27T01:56:16.237Z,20.1
2019-03-27T01:57:05.437Z,20.1
2019-03-27T01:57:55.750Z,20.2
2019-03-27T01:58:46.357Z,20.1
2019-03-27T01:59:36.160Z,20.1
2019-03-27T02:00:26.201Z,20.1
2019-03-27T02:01:15.997Z,20.2
2019-03-27T02:02:06.611Z,20.1
2019-03-27T02:02:56.660Z,20.1
2019-03-27T02:03:46.714Z,20.1
2019-03-27T02:04:36.849Z,20.2
2019-03-27T02:05:26.849Z,20.1
2019-03-27T02:06:16.892Z,20.1
2019-03-27T02:07:06.977Z,20.1
2019-03-27T02:07:57.025Z,20.1
2019-03-27T02:08:47.163Z,20.1
2019-03-27T02:09:36.579Z,20.1
2019-03-27T02:10:27.240Z,20.2
2019-03-27T02:11:17.274Z,20.2
2019-03-27T02:12:07.330Z,20.1
2019-03-27T02:12:57.103Z,20.1
2019-03-27T02:13:47.454Z,20.1
2019-03-27T02:14:37.234Z,20.1
2019-03-27T02:15:27.291Z,20.1
2019-03-27T02:16:17.059Z,20.1
2019-03-27T02:17:07.703Z,20.1
2019-03-27T02:17:57.193Z,20.1
2019-03-27T02:18:47.314Z,20.1
2019-03-27T02:19:37.332Z,20.1
2019-03-27T02:20:27.363Z,20.1
2019-03-27T02:21:17.440Z,20.1
2019-03-27T02:22:08.087Z,20.1
2019-03-27T02:22:57.556Z,20.1
2019-03-27T02:23:48.171Z,20.1
2019-03-27T02:24:38.226Z,20.1
2019-03-27T02:25:27.725Z,20.1
2019-03-27T02:26:18.349Z,20.1
2019-03-27T02:27:08.506Z,20.1
2019-03-27T02:27:57.902Z,20.1
2019-03-27T02:28:48.258Z,20.1
2019-03-27T02:29:38.329Z,20.1
2019-03-27T02:30:28.821Z,20.1
2019-03-27T02:31:18.500Z,20.1
2019-03-27T02:32:08.563Z,20.1
2019-03-27T02:32:58.882Z,20.1
2019-03-27T02:33:48.850Z,20.1
2019-03-27T02:34:38.454Z,20.1
2019-03-27T02:35:28.791Z,20.1
2019-03-27T02:36:18.832Z,20.1
2019-03-27T02:37:09.180Z,20.1
2019-03-27T02:37:59.243Z,20.1
2019-03-27T02:38:49.409Z,20.1
2019-03-27T02:39:39.115Z,20.1
2019-03-27T02:40:29.398Z,20.1
2019-03-27T02:41:19.621Z,20.1
2019-03-27T02:42:08.758Z,20.1
2019-03-27T02:42:59.322Z,20.1
2019-03-27T02:43:49.701Z,20.1
2019-03-27T02:44:39.726Z,20.1
2019-03-27T02:45:29.530Z,20.1
2019-03-27T02:46:28.425Z,20.1
2019-03-27T02:47:09.915Z,20.1
2019-03-27T02:47:59.969Z,20.1
2019-03-27T02:48:49.767Z,20.1
2019-03-27T02:49:40.218Z,20.1
2019-03-27T02:50:30.267Z,20.1
2019-03-27T02:51:19.937Z,20.1
2019-03-27T02:52:10.011Z,20.1
2019-03-27T02:53:00.325Z,20.1
2019-03-27T02:53:50.470Z,20.1
2019-03-27T02:54:40.185Z,20.1
2019-03-27T02:55:30.213Z,20.1
2019-03-27T02:56:20.605Z,20.1
2019-03-27T02:57:09.769Z,20.1
2019-03-27T02:57:59.842Z,20.1
2019-03-27T02:58:50.751Z,20.1
2019-03-27T02:59:40.507Z,20.1
2019-03-27T03:00:30.847Z,20.1
2019-03-27T03:01:20.385Z,20.1
2019-03-27T03:02:10.846Z,20.1
2019-03-27T03:03:00.223Z,20.1
2019-03-27T03:03:50.886Z,20.1
2019-03-27T03:07:21.067Z,20.1
2019-03-27T03:08:11.966Z,20.1
2019-03-27T03:09:01.799Z,20.1
2019-03-27T03:09:52.192Z,20.1
2019-03-27T03:10:46.725Z,20.1
2019-03-27T03:11:32.198Z,20.1
2019-03-27T03:12:22.368Z,20.1
2019-03-27T03:13:12.291Z,20.1
2019-03-27T03:14:02.083Z,20.1
2019-03-27T03:14:51.879Z,20.1
2019-03-27T03:15:42.520Z,20.1
2019-03-27T03:16:46.164Z,20.1
2019-03-27T03:17:22.318Z,20.1
2019-03-27T03:18:12.703Z,20.1
2019-03-27T03:19:02.801Z,20.1
2019-03-27T03:19:52.755Z,20.1
2019-03-27T03:20:42.573Z,20.1
2019-03-27T03:21:32.363Z,20.2
2019-03-27T03:22:22.783Z,20.1
2019-03-27T03:23:13.001Z,20.1
2019-03-27T03:24:02.730Z,20.2
2019-03-27T03:24:53.118Z,20.1
2019-03-27T03:25:43.223Z,20.1
2019-03-27T03:26:33.250Z,20.1
2019-03-27T03:27:23.343Z,20.2
2019-03-27T03:28:13.488Z,20.2
2019-03-27T03:29:02.910Z,20.2
2019-03-27T03:29:53.592Z,20.2
2019-03-27T03:30:43.435Z,20.2
2019-03-27T03:31:33.803Z,20.2
2019-03-27T03:32:23.767Z,20.2
2019-03-27T03:33:13.588Z,20.1
2019-03-27T03:34:04.164Z,20.2
2019-03-27T03:34:54.041Z,20.2
2019-03-27T03:35:43.674Z,20.2
2019-03-27T03:36:33.841Z,20.2
2019-03-27T03:37:24.062Z,20.2
2019-03-27T03:38:13.901Z,20.2
2019-03-27T03:39:04.139Z,20.2
2019-03-27T03:39:53.728Z,20.2
2019-03-27T03:40:44.305Z,20.2
2019-03-27T03:41:34.334Z,20.2
2019-03-27T03:42:23.877Z,20.3
2019-03-27T03:43:14.197Z,20.2
2019-03-27T03:44:04.287Z,20.3
2019-03-27T03:44:54.599Z,20.2
2019-03-27T03:45:44.367Z,20.3
2019-03-27T03:46:34.151Z,20.3
2019-03-27T03:47:24.784Z,20.3
2019-03-27T03:48:14.580Z,20.3
2019-03-27T03:49:04.631Z,20.3
2019-03-27T03:49:55.129Z,20.3
2019-03-27T03:50:45.293Z,20.3
2019-03-27T03:51:35.061Z,20.3
2019-03-27T03:52:24.861Z,20.3
2019-03-27T03:53:15.355Z,20.3
2019-03-27T03:54:05.007Z,20.3
2019-03-27T03:54:55.418Z,20.3
2019-03-27T03:55:45.533Z,20.3
2019-03-27T03:56:35.437Z,20.3
2019-03-27T03:57:25.480Z,20.3
2019-03-27T03:58:15.756Z,20.3
2019-03-27T03:59:05.633Z,20.3
2019-03-27T03:59:55.725Z,20.3
2019-03-27T04:00:45.500Z,20.3
2019-03-27T04:01:35.844Z,20.3
2019-03-27T04:02:25.219Z,20.3
2019-03-27T04:03:15.617Z,20.3
2019-03-27T04:04:05.748Z,20.3
2019-03-27T04:04:56.035Z,20.3
2019-03-27T04:05:46.091Z,20.3
2019-03-27T04:06:35.898Z,20.3
2019-03-27T04:07:25.672Z,20.3
2019-03-27T04:08:16.353Z,20.3
2019-03-27T04:09:05.791Z,20.3
2019-03-27T04:09:56.138Z,20.3
2019-03-27T04:10:46.760Z,20.3
2019-03-27T04:11:36.033Z,20.3
2019-03-27T04:12:26.013Z,20.3
2019-03-27T04:13:16.825Z,20.3
2019-03-27T04:14:06.438Z,20.3
2019-03-27T04:14:56.477Z,20.3
2019-03-27T04:15:46.835Z,20.3
2019-03-27T04:16:36.900Z,20.3
2019-03-27T04:17:26.927Z,20.3
2019-03-27T04:18:17.025Z,20.3
2019-03-27T04:19:06.828Z,20.3
2019-03-27T04:19:56.839Z,20.3
2019-03-27T04:20:47.187Z,20.3
2019-03-27T04:21:37.268Z,20.3
2019-03-27T04:22:26.767Z,20.3
2019-03-27T04:23:17.100Z,20.3
2019-03-27T04:24:07.150Z,20.3
2019-03-27T04:24:57.457Z,20.3
2019-03-27T04:26:13.915Z,20.3
2019-03-27T04:26:37.167Z,20.3
2019-03-27T04:27:27.368Z,20.3
2019-03-27T04:28:17.727Z,20.3
2019-03-27T04:29:07.773Z,20.3
2019-03-27T04:29:57.567Z,20.3
2019-03-27T04:30:47.925Z,20.3
2019-03-27T04:31:37.937Z,20.3
2019-03-27T04:32:28.047Z,20.3
2019-03-27T04:33:17.829Z,20.3
2019-03-27T04:34:07.849Z,20.3
2019-03-27T04:34:57.655Z,20.3
2019-03-27T04:35:48.246Z,20.3
2019-03-27T04:36:38.324Z,20.3
2019-03-27T04:37:28.113Z,20.3
2019-03-27T04:38:18.184Z,20.3
2019-03-27T04:39:08.498Z,20.3
2019-03-27T04:39:58.520Z,20.3
2019-03-27T04:40:48.328Z,20.3
2019-03-27T04:41:37.878Z,20.3
2019-03-27T04:42:28.773Z,20.3
2019-03-27T04:43:18.797Z,20.3
2019-03-27T04:44:08.855Z,20.3
2019-03-27T04:44:58.627Z,20.3
2019-03-27T04:45:48.953Z,20.3
2019-03-27T04:46:38.733Z,20.3
2019-03-27T04:47:35.751Z,20.3
2019-03-27T04:48:18.608Z,20.3
2019-03-27T04:49:11.310Z,20.3
2019-03-27T04:49:58.707Z,20.3
2019-03-27T04:50:49.335Z,20.3
2019-03-27T04:51:38.883Z,20.3
2019-03-27T04:52:29.150Z,20.3
2019-03-27T04:53:19.220Z,20.3
2019-03-27T04:54:09.269Z,20.3
2019-03-27T04:54:59.611Z,20.3
2019-03-27T04:55:49.112Z,20.3
2019-03-27T04:56:39.730Z,20.3
2019-03-27T04:57:29.519Z,20.3
2019-03-27T04:58:19.957Z,20.3
2019-03-27T04:59:09.980Z,20.3
2019-03-27T04:59:59.120Z,20.3
2019-03-27T05:00:49.850Z,20.3
2019-03-27T05:01:39.619Z,20.3
2019-03-27T05:02:30.164Z,20.4
2019-03-27T05:03:20.215Z,20.3
2019-03-27T05:04:10.303Z,20.3
2019-03-27T05:05:00.056Z,20.3
2019-03-27T05:05:49.857Z,20.3
2019-03-27T05:06:40.172Z,20.3
2019-03-27T05:07:30.227Z,20.4
2019-03-27T05:08:20.114Z,20.4
2019-03-27T05:09:10.630Z,20.4
2019-03-27T05:10:00.483Z,20.4
2019-03-27T05:10:50.266Z,20.4
2019-03-27T05:11:40.558Z,20.4
2019-03-27T05:12:30.969Z,20.4
2019-03-27T05:13:20.388Z,20.4
2019-03-27T05:14:10.999Z,20.4
2019-03-27T05:15:00.994Z,20.4
2019-03-27T05:15:51.192Z,20.4
2019-03-27T05:16:40.338Z,20.4
2019-03-27T05:17:30.408Z,20.4
2019-03-27T05:18:21.281Z,20.4
2019-03-27T05:19:11.088Z,20.4
2019-03-27T05:20:01.357Z,20.4
2019-03-27T05:20:50.954Z,20.4
2019-03-27T05:21:41.521Z,20.4
2019-03-27T05:22:31.337Z,20.4
2019-03-27T05:23:21.733Z,20.4
2019-03-27T05:24:11.441Z,20.4
2019-03-27T05:25:01.299Z,20.4
2019-03-27T05:25:51.545Z,20.4
2019-03-27T05:26:41.883Z,20.4
2019-03-27T05:27:31.937Z,20.4
2019-03-27T05:28:22.003Z,20.4
2019-03-27T05:29:11.788Z,20.4
2019-03-27T05:30:01.677Z,20.4
2019-03-27T05:30:52.230Z,20.4
2019-03-27T05:31:41.992Z,20.4
2019-03-27T05:32:32.031Z,20.4
2019-03-27T05:33:22.367Z,20.4
2019-03-27T05:34:12.146Z,20.4
2019-03-27T05:35:02.406Z,20.4
2019-03-27T05:35:52.598Z,20.4
2019-03-27T05:36:42.642Z,20.4
2019-03-27T05:37:32.673Z,20.4
2019-03-27T05:38:22.170Z,20.4
2019-03-27T05:39:16.415Z,20.4
2019-03-27T05:40:02.698Z,20.4
2019-03-27T05:40:52.900Z,20.4
2019-03-27T05:41:42.975Z,20.4
2019-03-27T05:42:33.022Z,20.4
2019-03-27T05:43:23.097Z,20.4
2019-03-27T05:44:13.160Z,20.4
2019-03-27T05:45:03.142Z,20.4
2019-03-27T05:45:53.005Z,20.4
2019-03-27T05:46:43.382Z,20.4
2019-03-27T05:47:33.385Z,20.4
2019-03-27T05:48:23.452Z,20.4
2019-03-27T05:49:13.249Z,20.4
2019-03-27T05:50:03.581Z,20.4
2019-03-27T05:50:53.390Z,20.4
2019-03-27T05:51:43.784Z,20.4
2019-03-27T05:52:33.472Z,20.4
2019-03-27T05:53:23.827Z,20.4
2019-03-27T05:54:13.324Z,20.4
2019-03-27T05:55:03.401Z,20.4
2019-03-27T05:55:53.439Z,20.4
2019-03-27T05:56:44.057Z,20.4
2019-03-27T05:57:34.116Z,20.4
2019-03-27T05:58:24.174Z,20.4
2019-03-27T05:59:14.239Z,20.4
2019-03-27T06:00:04.362Z,20.4
2019-03-27T06:00:54.084Z,20.4
2019-03-27T06:01:44.133Z,20.4
2019-03-27T06:02:34.484Z,20.4
2019-03-27T06:03:24.262Z,20.4
2019-03-27T06:05:21.444Z,20.4
2019-03-27T06:06:11.807Z,20.4
2019-03-27T06:07:01.570Z,20.4
2019-03-27T06:07:51.900Z,20.4
2019-03-27T06:08:41.146Z,20.4
2019-03-27T06:09:31.841Z,20.4
2019-03-27T06:10:21.254Z,20.4
2019-03-27T06:11:11.885Z,20.4
2019-03-27T06:12:01.933Z,20.4
2019-03-27T06:12:52.276Z,20.4
2019-03-27T06:13:42.403Z,20.4
2019-03-27T06:14:32.110Z,20.4
2019-03-27T06:15:21.600Z,20.4
2019-03-27T06:16:27.162Z,20.4
2019-03-27T06:17:02.353Z,20.4
2019-03-27T06:17:52.410Z,20.4
2019-03-27T06:18:42.425Z,20.4
2019-03-27T06:19:32.719Z,20.4
2019-03-27T06:20:22.806Z,20.4
2019-03-27T06:21:12.297Z,20.4
2019-03-27T06:22:02.920Z,20.4
2019-03-27T06:22:52.155Z,20.4
2019-03-27T06:23:43.052Z,20.4
2019-03-27T06:24:32.832Z,20.4
2019-03-27T06:25:22.975Z,20.4
2019-03-27T06:26:12.976Z,20.4
2019-03-27T06:27:03.002Z,20.4
2019-03-27T06:27:52.875Z,20.4
2019-03-27T06:28:43.416Z,20.4
2019-03-27T06:29:32.917Z,20.4
2019-03-27T06:30:23.547Z,20.4
2019-03-27T06:31:13.312Z,20.4
2019-03-27T06:32:03.407Z,20.4
2019-03-27T06:32:53.149Z,20.4
2019-03-27T06:33:43.485Z,20.4
2019-03-27T06:34:48.231Z,20.4
2019-03-27T06:35:23.367Z,20.4
2019-03-27T06:36:13.406Z,20.4
2019-03-27T06:37:03.434Z,20.4
2019-03-27T06:37:53.780Z,20.4
2019-03-27T06:38:43.839Z,20.4
2019-03-27T06:39:33.896Z,20.4
2019-03-27T06:40:24.245Z,20.4
2019-03-27T06:41:14.350Z,20.4
2019-03-27T06:42:03.832Z,20.4
2019-03-27T06:42:54.449Z,20.4
2019-03-27T06:43:44.487Z,20.4
2019-03-27T06:44:34.242Z,20.4
2019-03-27T06:45:24.589Z,20.4
2019-03-27T06:46:13.827Z,20.4
2019-03-27T06:47:04.701Z,20.4
2019-03-27T06:47:54.225Z,20.4
2019-03-27T06:48:44.826Z,20.4
2019-03-27T06:49:34.891Z,20.4
2019-03-27T06:50:25.027Z,20.4
2019-03-27T06:51:15.004Z,20.4
2019-03-27T06:52:04.786Z,20.4
2019-03-27T06:52:54.853Z,20.4
2019-03-27T06:53:45.181Z,20.4
2019-03-27T06:54:34.993Z,20.4
2019-03-27T06:55:25.324Z,20.4
2019-03-27T06:56:14.280Z,20.4
2019-03-27T06:57:05.533Z,20.4
2019-03-27T06:57:55.745Z,20.4
2019-03-27T06:58:58.093Z,20.4
2019-03-27T06:59:35.607Z,20.4
2019-03-27T07:00:25.388Z,20.4
2019-03-27T07:01:15.735Z,20.4
2019-03-27T07:02:05.895Z,20.4
2019-03-27T07:02:55.845Z,20.4
2019-03-27T07:05:36.533Z,20.4
2019-03-27T07:06:40.495Z,20.4
2019-03-27T07:07:14.643Z,20.4
2019-03-27T07:08:03.945Z,20.4
2019-03-27T07:08:55.018Z,20.4
2019-03-27T07:09:45.608Z,20.4
2019-03-27T07:10:34.611Z,20.4
2019-03-27T07:11:24.391Z,20.4
2019-03-27T07:12:24.209Z,20.4
2019-03-27T07:13:04.602Z,20.4
2019-03-27T07:13:54.846Z,20.4
2019-03-27T07:14:44.920Z,20.4
2019-03-27T07:15:38.330Z,20.4
2019-03-27T07:16:24.747Z,20.4
2019-03-27T07:17:15.091Z,20.4
2019-03-27T07:18:05.436Z,20.4
2019-03-27T07:18:55.462Z,20.4
2019-03-27T07:20:00.359Z,20.4
2019-03-27T07:20:35.322Z,20.4
2019-03-27T07:21:25.900Z,20.4
2019-03-27T07:22:15.666Z,20.4
2019-03-27T07:23:05.787Z,20.4
2019-03-27T07:23:55.839Z,20.4
2019-03-27T07:24:45.114Z,20.4
2019-03-27T07:25:35.687Z,20.4
2019-03-27T07:26:25.741Z,20.4
2019-03-27T07:27:16.072Z,20.4
2019-03-27T07:28:06.165Z,20.4
2019-03-27T07:28:55.370Z,19.4
2019-03-27T07:29:45.741Z,30.6
2019-03-27T07:30:36.334Z,51.8
2019-03-27T07:31:26.439Z,57.8
2019-03-27T07:32:16.188Z,57.8
2019-03-27T07:33:05.989Z,57.1
2019-03-27T07:33:56.355Z,54
2019-03-27T07:34:46.352Z,50.3
2019-03-27T07:35:36.408Z,49.3
2019-03-27T07:36:26.269Z,48.3
2019-03-27T07:37:16.531Z,47.5
2019-03-27T07:38:06.056Z,46.8
2019-03-27T07:39:11.545Z,46.1
2019-03-27T07:39:47.205Z,45.3
2019-03-27T07:40:37.061Z,44.9
2019-03-27T07:41:27.129Z,44.3
2019-03-27T07:42:16.903Z,43.8
2019-03-27T07:43:07.240Z,43.3
2019-03-27T07:43:56.723Z,42.7
2019-03-27T07:44:47.353Z,42.2
2019-03-27T07:45:37.394Z,41.7
2019-03-27T07:46:27.485Z,41.2
2019-03-27T07:47:16.968Z,40.8
2019-03-27T07:48:07.590Z,40.3
2019-03-27T07:48:57.714Z,39.8
2019-03-27T07:49:47.718Z,39.4
2019-03-27T07:50:37.603Z,39
2019-03-27T07:51:27.550Z,38.6
2019-03-27T07:52:17.935Z,38.2
2019-03-27T07:53:07.682Z,37.8
2019-03-27T07:53:58.005Z,37.4
2019-03-27T07:54:48.160Z,37.1
2019-03-27T07:55:38.219Z,36.8
2019-03-27T07:56:28.224Z,36.4
2019-03-27T07:57:17.991Z,36.1
2019-03-27T07:58:08.311Z,35.8
2019-03-27T07:59:01.514Z,35.4
2019-03-27T07:59:47.894Z,35.1
2019-03-27T08:00:38.571Z,34.8
2019-03-27T08:01:28.541Z,34.6
2019-03-27T08:02:18.603Z,34.3
2019-03-27T08:03:08.680Z,33.9
2019-03-27T08:03:58.726Z,33.7
2019-03-27T08:04:47.686Z,38.4
2019-03-27T08:05:38.575Z,43.8
2019-03-27T08:06:28.618Z,55.5
2019-03-27T08:07:30.271Z,57.5
2019-03-27T08:08:08.766Z,56.8
2019-03-27T08:08:58.821Z,54.6
2019-03-27T08:09:49.233Z,51.3
2019-03-27T08:10:38.649Z,49.6
2019-03-27T08:11:30.355Z,48.5
2019-03-27T08:12:19.086Z,47.6
2019-03-27T08:13:09.178Z,47
2019-03-27T08:13:59.446Z,46.4
2019-03-27T08:14:49.595Z,45.8
2019-03-27T08:15:43.163Z,45.3
2019-03-27T08:16:29.357Z,44.6
2019-03-27T08:17:19.150Z,44.1
2019-03-27T08:18:08.735Z,43.6
2019-03-27T08:19:11.222Z,43.1
2019-03-27T08:19:49.611Z,42.5
2019-03-27T08:20:39.662Z,42.1
2019-03-27T08:21:33.555Z,41.6
2019-03-27T08:22:19.792Z,41.2
2019-03-27T08:23:09.844Z,40.8
2019-03-27T08:24:00.182Z,40.3
2019-03-27T08:24:49.689Z,39.9
2019-03-27T08:25:39.807Z,39.5
2019-03-27T08:26:30.357Z,39.1
2019-03-27T08:27:20.417Z,38.8
2019-03-27T08:28:10.010Z,38.4
2019-03-27T08:29:00.567Z,38
2019-03-27T08:29:50.337Z,37.6
2019-03-27T08:30:40.675Z,37.3
2019-03-27T08:31:30.443Z,41
2019-03-27T08:32:20.812Z,46.4
2019-03-27T08:33:10.849Z,59.9
2019-03-27T08:34:01.131Z,63.9
2019-03-27T08:34:50.702Z,62.6
2019-03-27T08:35:40.739Z,60.1
2019-03-27T08:36:31.105Z,58.4
2019-03-27T08:37:21.143Z,57.5
2019-03-27T08:38:10.936Z,56.8
2019-03-27T08:39:01.398Z,55.9
2019-03-27T08:39:51.139Z,55.1
2019-03-27T08:40:40.924Z,54.2
2019-03-27T08:41:31.446Z,53.4
2019-03-27T08:42:20.688Z,52.6
2019-03-27T08:43:28.246Z,51.8
2019-03-27T08:44:00.912Z,50.8
2019-03-27T08:44:51.748Z,50.3
2019-03-27T08:45:41.749Z,49.6
2019-03-27T08:46:31.896Z,49.9
2019-03-27T08:47:21.588Z,50.1
2019-03-27T08:48:11.103Z,60.2
2019-03-27T08:49:01.724Z,66
2019-03-27T08:50:06.700Z,65.9
2019-03-27T08:50:41.822Z,63.9
2019-03-27T08:51:32.181Z,61.2
2019-03-27T08:52:22.238Z,58.6
2019-03-27T08:53:12.294Z,57.3
2019-03-27T08:54:02.364Z,56.5
2019-03-27T08:54:52.451Z,55.8
2019-03-27T08:55:42.479Z,55.1
2019-03-27T08:56:32.262Z,54.2
2019-03-27T08:57:22.646Z,53.4
2019-03-27T08:58:12.661Z,52.6
2019-03-27T08:59:02.187Z,51.8
2019-03-27T08:59:52.479Z,51.1
2019-03-27T09:00:42.548Z,50.3
2019-03-27T09:01:32.408Z,49.6
2019-03-27T09:02:23.027Z,48.9
2019-03-27T09:03:12.723Z,48.3
2019-03-27T09:04:03.096Z,47.7
2019-03-27T09:04:53.197Z,47.1
2019-03-27T09:05:42.903Z,46.4
2019-03-27T09:06:37.293Z,45.9
2019-03-27T09:07:23.082Z,45.3
2019-03-27T09:08:13.176Z,44.8
2019-03-27T09:09:17.829Z,44.3
2019-03-27T09:09:53.221Z,43.6
2019-03-27T09:10:43.554Z,43.3
2019-03-27T09:11:32.841Z,42.8
2019-03-27T09:12:23.406Z,42.3
2019-03-27T09:13:13.458Z,41.8
2019-03-27T09:14:03.803Z,41.4
2019-03-27T09:14:53.858Z,40.9
2019-03-27T09:15:43.650Z,40.6
2019-03-27T09:16:33.718Z,40.1
2019-03-27T09:17:23.743Z,43.3
2019-03-27T09:18:17.564Z,50.6
2019-03-27T09:19:04.156Z,64.4
2019-03-27T09:19:54.285Z,67.8
2019-03-27T09:20:43.998Z,67.6
2019-03-27T09:21:34.346Z,64
2019-03-27T09:22:24.441Z,59.6
2019-03-27T09:23:14.468Z,57.7
2019-03-27T09:24:04.573Z,56.6
2019-03-27T09:24:54.043Z,55.8
2019-03-27T09:25:44.084Z,55
2019-03-27T09:26:34.688Z,54.1
2019-03-27T09:27:24.457Z,53.3
2019-03-27T09:28:14.871Z,52.3
2019-03-27T09:29:04.602Z,51.7
2019-03-27T09:29:54.925Z,51.3
2019-03-27T09:30:45.442Z,53.6
2019-03-27T09:31:48.422Z,62.7
2019-03-27T09:32:24.832Z,66.5
2019-03-27T09:33:15.189Z,67.1
2019-03-27T09:34:04.699Z,66.2
2019-03-27T09:34:54.735Z,63.7
2019-03-27T09:35:45.513Z,60.9
2019-03-27T09:36:35.222Z,59.5
2019-03-27T09:37:25.476Z,60.2
2019-03-27T09:38:15.761Z,61.7
2019-03-27T09:39:05.326Z,63.2
2019-03-27T09:39:55.391Z,64
2019-03-27T09:40:45.162Z,64.1
2019-03-27T09:41:35.787Z,63.6
2019-03-27T09:42:25.610Z,62.9
2019-03-27T09:43:15.069Z,62.5
2019-03-27T09:44:06.067Z,62.6
2019-03-27T09:44:56.241Z,63.1
2019-03-27T09:45:46.065Z,63.6
2019-03-27T09:46:35.599Z,63.9
2019-03-27T09:47:26.201Z,64.2
2019-03-27T09:48:16.246Z,64.2
2019-03-27T09:49:06.311Z,64.1
2019-03-27T09:49:56.107Z,63.9
2019-03-27T09:50:46.154Z,63.9
2019-03-27T09:51:36.226Z,64
2019-03-27T09:52:26.322Z,64.3
2019-03-27T09:53:16.626Z,64.4
2019-03-27T09:54:06.688Z,64.6
2019-03-27T09:54:56.453Z,64.8
2019-03-27T09:55:46.261Z,64.7
2019-03-27T09:56:36.853Z,64.7
2019-03-27T09:57:26.649Z,64.7
2019-03-27T09:58:16.986Z,64.8
2019-03-27T09:59:09.216Z,64.9
2019-03-27T09:59:56.041Z,65
2019-03-27T10:00:47.206Z,65.2
2019-03-27T10:01:37.016Z,65.3
2019-03-27T10:02:26.993Z,65.4
2019-03-27T10:03:17.087Z,65.5
2019-03-27T10:04:07.382Z,65.6
2019-03-27T10:06:21.581Z,65.8
2019-03-27T10:07:11.512Z,65.9
2019-03-27T10:08:01.377Z,66
2019-03-27T10:08:51.712Z,66.1
2019-03-27T10:09:41.807Z,66.2
2019-03-27T10:10:31.843Z,66.3
2019-03-27T10:11:25.285Z,66.4
2019-03-27T10:12:11.957Z,66.6
2019-03-27T10:13:02.000Z,66.6
2019-03-27T10:13:51.507Z,66.7
2019-03-27T10:14:42.116Z,66.8
2019-03-27T10:15:31.695Z,66.9
2019-03-27T10:16:22.404Z,67.1
2019-03-27T10:17:12.056Z,67.1
2019-03-27T10:18:01.808Z,67.3
2019-03-27T10:18:52.470Z,67.3
2019-03-27T10:19:41.395Z,67.4
2019-03-27T10:20:32.552Z,67.5
2019-03-27T10:21:22.070Z,67.6
2019-03-27T10:22:12.385Z,67.6
2019-03-27T10:23:02.830Z,67.8
2019-03-27T10:23:52.514Z,67.9
2019-03-27T10:24:42.362Z,67.9
2019-03-27T10:25:32.887Z,68.1
2019-03-27T10:26:22.693Z,68.2
2019-03-27T10:27:13.026Z,68.2
2019-03-27T10:28:02.872Z,68.2
2019-03-27T10:28:52.874Z,68.3
2019-03-27T10:29:43.269Z,68.3
2019-03-27T10:30:32.457Z,68.4
2019-03-27T10:31:23.307Z,68.5
2019-03-27T10:32:13.386Z,68.6
2019-03-27T10:33:03.174Z,68.6
2019-03-27T10:33:53.611Z,68.7
2019-03-27T10:34:43.279Z,68.6
2019-03-27T10:35:33.416Z,68.6
2019-03-27T10:36:23.673Z,68.6
2019-03-27T10:37:13.458Z,68.6
2019-03-27T10:38:03.246Z,68.7
2019-03-27T10:38:53.306Z,68.8
2019-03-27T10:39:43.913Z,68.8
2019-03-27T10:40:33.501Z,68.8
2019-03-27T10:41:23.750Z,68.8
2019-03-27T10:42:13.816Z,68.8
2019-03-27T10:43:03.908Z,68.9
2019-03-27T10:43:54.221Z,68.9
2019-03-27T10:44:44.022Z,69
2019-03-27T10:45:34.366Z,69.1
2019-03-27T10:46:24.187Z,69.1
2019-03-27T10:47:14.183Z,69.2
2019-03-27T10:48:04.242Z,69.2
2019-03-27T10:48:56.413Z,69.2
2019-03-27T10:49:44.647Z,69.2
2019-03-27T10:50:34.688Z,69.3
2019-03-27T10:51:24.765Z,69.3
2019-03-27T10:52:14.271Z,69.3
2019-03-27T10:53:04.867Z,69.3
2019-03-27T10:53:54.680Z,69.3
2019-03-27T10:54:45.002Z,69.1
2019-03-27T10:55:37.642Z,69.1
2019-03-27T10:56:24.574Z,69.1
2019-03-27T10:57:15.215Z,69.1
2019-03-27T10:58:05.253Z,69.1
2019-03-27T10:58:55.300Z,69
2019-03-27T10:59:45.383Z,68.9
2019-03-27T11:00:35.138Z,68.9
2019-03-27T11:01:25.527Z,68.9
2019-03-27T11:02:15.619Z,68.9
2019-03-27T11:03:05.084Z,68.9
2019-03-27T11:03:55.739Z,68.9
2019-03-27T11:04:45.451Z,68.9
2019-03-27T11:05:35.789Z,68.9
2019-03-27T11:06:25.557Z,68.9
2019-03-27T11:07:15.644Z,68.8
2019-03-27T11:08:05.977Z,68.8
2019-03-27T11:08:55.754Z,68.8
2019-03-27T11:09:45.825Z,68.7
2019-03-27T11:10:35.869Z,68.6
2019-03-27T11:11:25.662Z,68.6
2019-03-27T11:12:16.282Z,68.5
2019-03-27T11:13:06.067Z,68.4
2019-03-27T11:13:56.094Z,68.3